createdAt,value
2019-02-26T00:02:26.072Z,69.67
2019-02-26T00:05:41.386Z,69.86
2019-02-26T00:08:58.217Z,70.88
2019-02-26T00:12:10.994Z,70.56
2019-02-26T00:15:24.937Z,70.54
2019-02-26T00:18:38.773Z,70.43
2019-02-26T00:21:54.332Z,70.37
2019-02-26T00:25:10.445Z,70.49
2019-02-26T00:28:24.340Z,70.75
2019-02-26T00:31:38.153Z,71.19
2019-02-26T00:34:53.223Z,71.26
2019-02-26T00:38:08.961Z,71.19
2019-02-26T00:41:24.750Z,71.60
2019-02-26T00:44:39.199Z,71.69
2019-02-26T00:47:53.041Z,72.40
2019-02-26T00:51:06.859Z,72.33
2019-02-26T00:54:24.234Z,72.17
2019-02-26T00:57:38.367Z,72.42
2019-02-26T01:00:52.293Z,72.60
2019-02-26T01:04:06.156Z,72.77
2019-02-26T01:07:21.455Z,72.50
2019-02-26T01:10:37.536Z,72.36
2019-02-26T01:13:52.833Z,72.84
2019-02-26T01:17:08.208Z,73.23
2019-02-26T01:20:26.904Z,73.49
2019-02-26T01:23:38.773Z,73.52
2019-02-26T01:26:52.619Z,73.70
2019-02-26T01:30:12.535Z,73.95
2019-02-26T01:33:30.258Z,73.48
2019-02-26T01:36:46.787Z,73.48
2019-02-26T01:40:00.565Z,74.18
2019-02-26T01:43:14.377Z,74.35
2019-02-26T01:46:29.918Z,74.31
2019-02-26T01:49:44.641Z,74.52
2019-02-26T01:53:01.068Z,74.44
2019-02-26T01:56:15.035Z,74.79
2019-02-26T01:59:28.879Z,74.83
2019-02-26T02:02:42.841Z,75.41
2019-02-26T02:05:56.658Z,74.75
2019-02-26T02:09:13.438Z,75.14
2019-02-26T02:12:29.546Z,74.86
2019-02-26T02:15:42.714Z,74.93
2019-02-26T02:18:59.878Z,75.21
2019-02-26T02:22:14.665Z,75.48
2019-02-26T02:25:33.182Z,75.57
2019-02-26T02:28:45.014Z,75.68
2019-02-26T02:32:02.237Z,75.53
2019-02-26T02:35:17.873Z,76.02
2019-02-26T02:38:30.335Z,75.92
2019-02-26T02:41:45.449Z,76.40
2019-02-26T02:44:59.910Z,76.68
2019-02-26T02:48:14.239Z,76.54
2019-02-26T02:51:31.154Z,76.87
2019-02-26T02:54:47.026Z,77.07
2019-02-26T02:58:00.538Z,76.90
2019-02-26T03:01:16.637Z,77.17
2019-02-26T03:04:33.910Z,77.43
2019-02-26T03:07:50.442Z,77.73
2019-02-26T03:11:02.383Z,77.59
2019-02-26T03:14:18.534Z,77.79
2019-02-26T03:17:31.979Z,77.68
2019-02-26T03:20:45.802Z,78.01
2019-02-26T03:24:00.854Z,78.37
2019-02-26T03:27:15.381Z,78.60
2019-02-26T03:30:37.053Z,78.47
2019-02-26T03:33:45.092Z,78.70
2019-02-26T03:36:59.940Z,78.70
2019-02-26T03:40:14.747Z,78.06
2019-02-26T03:43:30.878Z,77.82
2019-02-26T03:46:44.296Z,77.89
2019-02-26T03:49:58.142Z,77.97
2019-02-26T03:53:11.967Z,78.49
2019-02-26T03:56:25.916Z,78.61
2019-02-26T03:59:39.899Z,79.06
2019-02-26T04:02:53.815Z,79.27
2019-02-26T04:06:09.995Z,79.25
2019-02-26T04:09:23.423Z,79.53
2019-02-26T04:12:41.942Z,79.56
2019-02-26T04:15:56.237Z,79.55
2019-02-26T04:19:09.446Z,80.37
2019-02-26T04:22:29.511Z,79.72
2019-02-26T04:25:52.097Z,80.18
2019-02-26T04:29:12.527Z,79.75
2019-02-26T04:32:35.589Z,79.80
2019-02-26T04:35:58.271Z,79.94
2019-02-26T04:39:30.927Z,79.93
2019-02-26T04:43:12.910Z,80.34
2019-02-26T04:46:31.638Z,80.57
2019-02-26T04:49:46.551Z,80.38
2019-02-26T04:53:04.438Z,80.64
2019-02-26T04:56:16.626Z,80.96
2019-02-26T04:59:32.412Z,81.35
2019-02-26T05:02:47.286Z,81.22
2019-02-26T05:06:03.092Z,80.59
2019-02-26T05:09:17.666Z,80.31
2019-02-26T05:12:33.991Z,80.63
2019-02-26T05:15:47.243Z,80.53
2019-02-26T05:19:02.982Z,80.85
2019-02-26T05:22:16.828Z,81.18
2019-02-26T05:25:31.481Z,81.30
2019-02-26T05:28:48.961Z,80.79
2019-02-26T05:32:04.232Z,80.61
2019-02-26T05:35:20.327Z,80.52
2019-02-26T05:38:34.883Z,80.56
2019-02-26T05:41:52.300Z,80.51
2019-02-26T05:45:06.880Z,80.75
2019-02-26T05:48:23.051Z,81.27
2019-02-26T05:51:38.222Z,81.44
2019-02-26T05:54:52.755Z,81.40
2019-02-26T05:58:07.443Z,80.69
2019-02-26T06:01:25.870Z,80.64
2019-02-26T06:04:41.097Z,81.25
2019-02-26T06:07:55.998Z,81.35
2019-02-26T06:11:09.848Z,81.63
2019-02-26T06:14:25.466Z,81.17
2019-02-26T06:17:43.071Z,80.95
2019-02-26T06:20:55.922Z,81.00
2019-02-26T06:24:10.958Z,80.62
2019-02-26T06:27:27.276Z,80.83
2019-02-26T06:30:40.615Z,81.24
2019-02-26T06:33:54.429Z,80.83
2019-02-26T06:37:16.681Z,80.67
2019-02-26T06:40:34.448Z,80.79
2019-02-26T06:43:48.371Z,80.48
2019-02-26T06:47:04.587Z,80.09
2019-02-26T06:50:19.009Z,80.30
2019-02-26T06:53:33.279Z,80.07
2019-02-26T06:56:49.071Z,79.77
2019-02-26T07:00:06.767Z,79.59
2019-02-26T07:03:24.202Z,79.11
2019-02-26T07:06:38.003Z,78.99
2019-02-26T07:09:52.007Z,78.87
2019-02-26T07:13:07.441Z,78.67
2019-02-26T07:16:21.616Z,78.66
2019-02-26T07:19:36.315Z,78.07
2019-02-26T07:22:51.668Z,77.44
2019-02-26T07:26:07.835Z,77.27
2019-02-26T07:29:21.695Z,76.91
2019-02-26T07:32:36.062Z,76.38
2019-02-26T07:35:52.269Z,75.88
2019-02-26T07:39:07.244Z,75.40
2019-02-26T07:42:21.100Z,74.86
2019-02-26T07:45:34.939Z,74.70
2019-02-26T07:48:53.530Z,74.17
2019-02-26T07:52:06.854Z,73.52
2019-02-26T07:55:20.301Z,73.22
2019-02-26T07:58:36.072Z,72.86
2019-02-26T08:01:49.855Z,72.01
2019-02-26T08:05:04.868Z,71.23
2019-02-26T08:08:20.915Z,70.54
2019-02-26T08:11:36.257Z,70.30
2019-02-26T08:14:50.264Z,69.84
2019-02-26T08:18:05.313Z,69.54
2019-02-26T08:21:21.735Z,68.97
2019-02-26T08:24:35.099Z,68.04
2019-02-26T08:27:52.156Z,67.57
2019-02-26T08:31:06.706Z,66.95
2019-02-26T08:34:20.682Z,66.40
2019-02-26T08:37:34.487Z,65.86
2019-02-26T08:40:48.443Z,65.39
2019-02-26T08:44:02.392Z,64.46
2019-02-26T08:47:18.592Z,63.95
2019-02-26T08:50:33.402Z,62.75
2019-02-26T08:53:49.505Z,62.77
2019-02-26T08:57:03.792Z,62.09
2019-02-26T09:00:20.144Z,61.80
2019-02-26T09:03:40.364Z,60.91
2019-02-26T09:06:51.859Z,60.84
2019-02-26T09:10:10.676Z,60.28
2019-02-26T09:13:25.534Z,59.60
2019-02-26T09:16:39.652Z,58.79
2019-02-26T09:20:06.266Z,58.56
2019-02-26T09:23:09.324Z,57.61
2019-02-26T09:26:23.220Z,57.65
2019-02-26T09:29:41.209Z,56.67
2019-02-26T09:32:54.711Z,56.55
2019-02-26T09:36:10.750Z,56.45
2019-02-26T09:39:24.332Z,56.06
2019-02-26T09:42:38.185Z,55.54
2019-02-26T09:45:52.905Z,54.94
2019-02-26T09:49:11.941Z,53.40
2019-02-26T09:52:25.684Z,52.89
2019-02-26T09:55:38.451Z,52.70
2019-02-26T09:58:52.408Z,51.58
2019-02-26T10:02:06.291Z,50.96
2019-02-26T10:05:20.113Z,50.29
2019-02-26T10:08:33.959Z,48.28
2019-02-26T10:11:49.240Z,47.55
2019-02-26T10:15:06.834Z,46.08
2019-02-26T10:18:21.498Z,44.81
2019-02-26T10:21:37.586Z,43.02
2019-02-26T10:24:52.194Z,39.11
2019-02-26T10:28:08.795Z,36.07
2019-02-26T10:31:25.067Z,32.91
2019-02-26T10:34:37.605Z,31.25
2019-02-26T10:37:57.069Z,28.81
2019-02-26T10:41:11.900Z,27.07
2019-02-26T10:44:25.790Z,26.68
2019-02-26T10:47:39.628Z,29.46
2019-02-26T10:50:53.470Z,26.59
2019-02-26T10:54:09.650Z,24.84
2019-02-26T10:57:23.045Z,23.21
2019-02-26T11:00:38.011Z,22.13
2019-02-26T11:03:55.079Z,21.04
2019-02-26T11:07:09.298Z,19.76
2019-02-26T11:10:25.232Z,20.02
2019-02-26T11:13:40.719Z,18.31
2019-02-26T11:16:55.238Z,17.38
2019-02-26T11:20:12.177Z,17.17
2019-02-26T11:23:30.961Z,16.61
2019-02-26T11:26:43.873Z,16.56
2019-02-26T11:29:59.503Z,15.65
2019-02-26T11:33:15.467Z,15.59
2019-02-26T11:36:31.283Z,15.28
2019-02-26T11:39:44.814Z,15.32
2019-02-26T11:43:00.214Z,14.51
2019-02-26T11:46:14.409Z,13.81
2019-02-26T11:49:28.262Z,14.76
2019-02-26T11:52:42.162Z,13.98
2019-02-26T11:55:56.931Z,14.69
2019-02-26T11:59:14.348Z,14.78
2019-02-26T12:02:33.409Z,14.68
2019-02-26T12:05:43.620Z,12.84
2019-02-26T12:08:57.459Z,11.44
2019-02-26T12:12:11.657Z,11.93
2019-02-26T12:15:27.117Z,10.53
2019-02-26T12:18:44.346Z,10.41
2019-02-26T12:22:01.311Z,10.69
2019-02-26T12:25:15.422Z,9.63
2019-02-26T12:28:32.472Z,10.32
2019-02-26T12:31:45.022Z,9.45
2019-02-26T12:34:58.894Z,11.10
2019-02-26T12:38:20.591Z,11.21
2019-02-26T12:41:28.460Z,9.09
2019-02-26T12:44:45.241Z,9.67
2019-02-26T12:47:58.234Z,9.51
2019-02-26T12:51:12.462Z,8.57
2019-02-26T12:54:26.897Z,8.36
2019-02-26T12:57:43.203Z,8.60
2019-02-26T13:00:58.485Z,9.68
2019-02-26T13:04:13.993Z,9.04
2019-02-26T13:07:28.134Z,9.77
2019-02-26T13:10:46.280Z,8.30
2019-02-26T13:13:57.904Z,8.63
2019-02-26T13:17:13.881Z,9.03
2019-02-26T13:20:27.707Z,8.34
2019-02-26T13:23:41.538Z,7.52
2019-02-26T13:26:59.269Z,7.95
2019-02-26T13:30:17.696Z,7.50
2019-02-26T13:33:36.960Z,7.50
2019-02-26T13:36:52.653Z,7.22
2019-02-26T13:40:06.874Z,6.15
2019-02-26T13:43:20.739Z,7.19
2019-02-26T13:46:34.914Z,9.55
2019-02-26T13:49:49.048Z,8.38
2019-02-26T13:53:03.501Z,6.92
2019-02-26T13:56:17.469Z,6.27
2019-02-26T13:59:31.317Z,8.82
2019-02-26T14:02:45.258Z,6.12
2019-02-26T14:05:59.122Z,6.33
2019-02-26T14:09:12.982Z,7.20
2019-02-26T14:12:26.817Z,5.93
2019-02-26T14:15:40.796Z,5.83
2019-02-26T14:18:54.655Z,5.58
2019-02-26T14:22:08.482Z,5.45
2019-02-26T14:25:22.768Z,4.81
2019-02-26T14:28:36.646Z,5.58
2019-02-26T14:31:50.511Z,6.12
2019-02-26T14:35:07.591Z,5.67
2019-02-26T14:38:21.526Z,5.64
2019-02-26T14:41:35.593Z,5.38
2019-02-26T14:44:49.454Z,5.38
2019-02-26T14:48:03.415Z,5.81
2019-02-26T14:51:17.815Z,6.89
2019-02-26T14:54:32.046Z,5.69
2019-02-26T14:57:45.972Z,5.75
2019-02-26T15:01:03.819Z,5.72
2019-02-26T15:04:17.909Z,6.00
2019-02-26T15:07:31.854Z,5.73
2019-02-26T15:10:45.826Z,4.80
2019-02-26T15:13:59.648Z,6.58
2019-02-26T15:17:13.595Z,6.87
2019-02-26T15:20:27.938Z,6.42
2019-02-26T15:23:41.787Z,5.98
2019-02-26T15:26:55.640Z,5.81
2019-02-26T15:30:12.811Z,6.39
2019-02-26T15:33:26.673Z,7.08
2019-02-26T15:36:40.801Z,12.26
2019-02-26T15:39:54.632Z,14.59
2019-02-26T15:43:08.504Z,16.14
2019-02-26T15:46:22.360Z,16.44
2019-02-26T15:49:37.773Z,17.77
2019-02-26T15:52:53.023Z,18.37
2019-02-26T15:56:07.656Z,19.32
2019-02-26T15:59:21.515Z,19.09
2019-02-26T16:02:36.824Z,19.62
2019-02-26T16:05:50.765Z,20.21
2019-02-26T16:09:05.239Z,20.47
2019-02-26T16:12:19.104Z,21.60
2019-02-26T16:15:34.256Z,21.81
2019-02-26T16:18:48.138Z,23.81
2019-02-26T16:22:01.971Z,23.12
2019-02-26T16:25:15.916Z,24.74
2019-02-26T16:28:29.779Z,24.73
2019-02-26T16:31:43.657Z,25.02
2019-02-26T16:34:57.525Z,26.51
2019-02-26T16:38:14.146Z,28.50
2019-02-26T16:41:27.867Z,30.14
2019-02-26T16:44:41.832Z,30.24
2019-02-26T16:47:57.299Z,31.32
2019-02-26T16:51:11.559Z,32.60
2019-02-26T16:54:26.053Z,33.26
2019-02-26T16:57:40.003Z,34.16
2019-02-26T17:00:53.988Z,35.50
2019-02-26T17:04:08.849Z,37.73
2019-02-26T17:07:22.974Z,37.73
2019-02-26T17:10:37.435Z,38.32
2019-02-26T17:13:51.381Z,39.57
2019-02-26T17:17:05.444Z,39.96
2019-02-26T17:20:19.581Z,40.76
2019-02-26T17:23:35.202Z,41.23
2019-02-26T17:26:49.681Z,41.93
2019-02-26T17:30:07.395Z,43.63
2019-02-26T17:33:21.374Z,44.99
2019-02-26T17:36:35.939Z,45.89
2019-02-26T17:39:49.971Z,46.12
2019-02-26T17:43:04.301Z,46.47
2019-02-26T17:46:18.279Z,47.10
2019-02-26T17:49:33.680Z,47.84
2019-02-26T17:52:48.046Z,48.54
2019-02-26T17:56:01.987Z,49.42
2019-02-26T17:59:16.863Z,49.45
2019-02-26T18:02:31.540Z,49.65
2019-02-26T18:05:51.233Z,50.24
2019-02-26T18:09:01.276Z,50.80
2019-02-26T18:12:15.102Z,51.41
2019-02-26T18:15:29.072Z,51.06
2019-02-26T18:18:43.044Z,51.43
2019-02-26T18:21:56.897Z,51.41
2019-02-26T18:25:13.583Z,51.13
2019-02-26T18:28:27.573Z,52.09
2019-02-26T18:31:41.592Z,52.03
2019-02-26T18:34:55.431Z,51.98
2019-02-26T18:38:09.371Z,53.08
2019-02-26T18:41:23.336Z,52.95
2019-02-26T18:44:37.201Z,53.62
2019-02-26T18:47:51.164Z,54.44
2019-02-26T18:51:05.786Z,55.13
2019-02-26T18:54:20.304Z,55.13
2019-02-26T18:57:35.239Z,55.67
2019-02-26T19:00:49.135Z,56.00
2019-02-26T19:04:03.176Z,55.60
2019-02-26T19:07:17.038Z,56.01
2019-02-26T19:10:31.114Z,56.73
2019-02-26T19:13:44.958Z,56.90
2019-02-26T19:16:58.862Z,57.20
2019-02-26T19:20:23.180Z,57.40
2019-02-26T19:23:37.156Z,57.32
2019-02-26T19:26:51.160Z,57.79
2019-02-26T19:30:11.005Z,57.75
2019-02-26T19:33:25.164Z,59.03
2019-02-26T19:36:39.069Z,59.38
2019-02-26T19:39:52.992Z,59.37
2019-02-26T19:43:09.654Z,60.31
2019-02-26T19:46:23.625Z,60.24
2019-02-26T19:49:39.782Z,60.32
2019-02-26T19:52:56.952Z,61.10
2019-02-26T19:56:09.270Z,61.44
2019-02-26T19:59:23.201Z,61.82
2019-02-26T20:02:37.087Z,61.67
2019-02-26T20:05:51.167Z,61.91
2019-02-26T20:09:06.462Z,62.44
2019-02-26T20:12:20.570Z,62.38
2019-02-26T20:15:34.420Z,62.61
2019-02-26T20:18:48.276Z,62.88
2019-02-26T20:22:02.249Z,63.76
2019-02-26T20:25:18.084Z,63.35
2019-02-26T20:28:35.232Z,63.78
2019-02-26T20:31:47.972Z,64.26
2019-02-26T20:35:02.820Z,64.06
2019-02-26T20:38:16.685Z,64.49
2019-02-26T20:41:30.550Z,64.60
2019-02-26T20:44:45.426Z,64.81
2019-02-26T20:48:03.845Z,65.45
2019-02-26T20:51:18.641Z,65.38
2019-02-26T20:54:32.829Z,65.72
2019-02-26T20:57:47.092Z,65.33
2019-02-26T21:01:00.978Z,65.54
2019-02-26T21:04:14.958Z,66.10
2019-02-26T21:07:28.814Z,66.33
2019-02-26T21:10:45.906Z,66.64
2019-02-26T21:14:01.364Z,66.95
2019-02-26T21:17:15.225Z,67.04
2019-02-26T21:20:29.190Z,66.86
2019-02-26T21:23:43.052Z,66.97
2019-02-26T21:26:57.037Z,66.88
2019-02-26T21:30:16.649Z,66.73
2019-02-26T21:33:31.323Z,67.12
2019-02-26T21:36:45.713Z,67.59
2019-02-26T21:39:59.541Z,67.98
2019-02-26T21:43:16.303Z,68.18
2019-02-26T21:46:30.153Z,68.27
2019-02-26T21:49:43.979Z,68.69
2019-02-26T21:52:59.656Z,68.84
2019-02-26T21:56:15.458Z,68.87
2019-02-26T21:59:32.596Z,69.05
2019-02-26T22:02:45.292Z,69.57
2019-02-26T22:06:05.344Z,69.37
2019-02-26T22:09:14.960Z,69.65
2019-02-26T22:12:28.848Z,69.67
2019-02-26T22:15:44.677Z,69.44
2019-02-26T22:18:58.461Z,69.32
2019-02-26T22:22:12.426Z,69.19
2019-02-26T22:25:26.281Z,69.53
2019-02-26T22:28:42.107Z,69.99
2019-02-26T22:31:55.941Z,70.69
2019-02-26T22:35:10.015Z,71.18
2019-02-26T22:38:23.864Z,71.29
2019-02-26T22:41:37.731Z,71.25
2019-02-26T22:44:54.639Z,71.74
2019-02-26T22:48:08.692Z,71.93
2019-02-26T22:51:22.698Z,72.53
2019-02-26T22:54:36.577Z,72.25
2019-02-26T22:57:50.450Z,72.23
2019-02-26T23:01:30.566Z,71.91
2019-02-26T23:04:41.171Z,71.92
2019-02-26T23:07:55.316Z,71.87
2019-02-26T23:11:10.441Z,71.77
2019-02-26T23:14:24.884Z,71.66
2019-02-26T23:17:39.337Z,72.19
2019-02-26T23:20:53.212Z,72.29
2019-02-26T23:24:07.161Z,72.11
2019-02-26T23:27:20.973Z,72.29
2019-02-26T23:30:34.867Z,72.24
2019-02-26T23:33:49.123Z,72.07
2019-02-26T23:37:04.568Z,72.32
2019-02-26T23:40:18.529Z,72.22
2019-02-26T23:43:32.443Z,72.21
2019-02-26T23:46:46.388Z,72.41
2019-02-26T23:50:00.289Z,72.70
2019-02-26T23:53:14.151Z,72.34
2019-02-26T23:56:28.009Z,72.11
2019-02-26T23:59:41.866Z,72.13
